Terminal Aerodrome Forecast
Issued by NWS

Home | Current Version | Previous Version | Text Only | Print | Product List | Glossary On
Versions: 1 2 3 4 5 6 7 8 9 10 11 12 13 14
000
FTUS43 KDVN 191700
TAFCID
TAF
KCID 191730Z 1918/2018 21014G22KT P6SM BKN150
     FM200000 23008KT P6SM BKN250
     FM200800 30008KT P6SM SKC=

USA.gov is the U.S. government's official web portal to all federal, state and local government web resources and services.